Time;durP1;ratioP1;P1;durP2;ratioP2;P2;SDS_P1;SDS_P2;PMS_P1;PMS_P2;Temp;Humidity;BMP_temperature;BMP_pressure;BME280_temperature;BME280_humidity;BME280_pressure;Samples;Min_cycle;Max_cycle;Signal;HPM_P1;HPM_P2
2023/12/27 00:00:52;;;;;;;1.70;1.30;;;6.70;98.20;;;;;;6108373;23;20496;-84
2023/12/27 00:03:19;;;;;;;5.10;3.77;;;6.60;98.20;;;;;;6121463;23;20440;-83
2023/12/27 00:05:45;;;;;;;1.70;1.30;;;6.60;98.20;;;;;;6121218;23;20718;-82
2023/12/27 00:08:11;;;;;;;1.67;1.30;;;6.50;98.20;;;;;;6082670;23;20457;-83
2023/12/27 00:10:38;;;;;;;1.67;1.27;;;6.50;98.20;;;;;;6131521;23;20413;-82
2023/12/27 00:13:06;;;;;;;1.60;1.30;;;6.40;98.20;;;;;;6106247;23;20212;-83
2023/12/27 00:15:33;;;;;;;1.67;1.30;;;6.40;98.20;;;;;;6121931;23;20442;-83
2023/12/27 00:18:01;;;;;;;1.67;1.33;;;6.40;98.20;;;;;;6106330;23;20446;-82
2023/12/27 00:20:27;;;;;;;1.67;1.30;;;6.30;98.20;;;;;;6127493;23;20549;-85
2023/12/27 00:22:54;;;;;;;1.70;1.30;;;6.30;98.20;;;;;;6102938;23;20997;-84
2023/12/27 00:25:21;;;;;;;1.60;1.30;;;6.30;98.20;;;;;;6121459;23;20421;-83
2023/12/27 00:27:48;;;;;;;1.67;1.30;;;6.20;98.20;;;;;;6107020;23;20534;-82
2023/12/27 00:30:16;;;;;;;1.63;1.30;;;6.10;98.20;;;;;;6121209;23;20449;-84
2023/12/27 00:32:43;;;;;;;1.60;1.30;;;6.10;98.20;;;;;;6106888;23;20532;-81
2023/12/27 00:35:10;;;;;;;1.70;1.40;;;6.10;98.20;;;;;;6121533;23;20421;-81
2023/12/27 00:37:36;;;;;;;1.67;1.20;;;6.00;98.20;;;;;;6105093;23;20793;-81
2023/12/27 00:40:04;;;;;;;1.70;1.30;;;6.00;98.20;;;;;;6120945;23;20789;-81
2023/12/27 00:42:30;;;;;;;1.60;1.27;;;6.00;98.20;;;;;;6105131;23;20453;-82
2023/12/27 00:44:57;;;;;;;1.60;1.30;;;6.00;98.20;;;;;;6121813;23;20922;-83
2023/12/27 00:47:25;;;;;;;1.63;1.30;;;6.00;98.20;;;;;;6104635;23;20445;-83
2023/12/27 00:49:52;;;;;;;1.67;1.30;;;5.90;98.20;;;;;;6121818;23;20428;-84
2023/12/27 00:52:19;;;;;;;1.67;1.30;;;5.90;98.20;;;;;;6106094;23;20505;-82
2023/12/27 00:54:45;;;;;;;1.67;1.30;;;5.90;98.20;;;;;;6121790;23;20496;-84
2023/12/27 00:57:12;;;;;;;1.63;1.30;;;5.80;98.20;;;;;;6106568;23;20446;-84
2023/12/27 00:59:39;;;;;;;1.63;1.23;;;5.80;98.20;;;;;;6122684;23;20854;-83
2023/12/27 01:02:06;;;;;;;1.70;1.30;;;5.80;98.20;;;;;;6105515;23;20457;-84
2023/12/27 01:04:34;;;;;;;1.60;1.30;;;5.80;98.20;;;;;;6121048;23;20426;-82
2023/12/27 01:07:01;;;;;;;1.63;1.30;;;5.80;98.20;;;;;;6107360;23;20448;-84
2023/12/27 01:09:28;;;;;;;1.67;1.30;;;5.80;98.20;;;;;;6121516;23;20413;-84
2023/12/27 01:11:55;;;;;;;1.67;1.40;;;5.80;98.20;;;;;;6112268;23;20540;-83
2023/12/27 01:14:21;;;;;;;1.70;1.40;;;5.80;98.20;;;;;;6122686;23;20929;-84
2023/12/27 01:16:48;;;;;;;1.60;1.20;;;5.70;98.20;;;;;;6108809;23;20445;-84
2023/12/27 01:19:15;;;;;;;1.60;1.30;;;5.70;98.20;;;;;;6123345;23;20417;-84
2023/12/27 01:21:43;;;;;;;1.70;1.30;;;5.70;98.20;;;;;;6107619;23;20464;-83
2023/12/27 01:24:10;;;;;;;1.63;1.40;;;5.70;98.20;;;;;;6123469;23;20424;-84
2023/12/27 01:26:37;;;;;;;1.63;1.30;;;5.70;98.20;;;;;;6109282;23;20574;-84
2023/12/27 01:29:03;;;;;;;1.67;1.30;;;5.70;98.20;;;;;;6123342;23;20426;-83
2023/12/27 01:31:30;;;;;;;1.60;1.30;;;5.70;98.20;;;;;;6108287;23;20847;-83
2023/12/27 01:33:57;;;;;;;1.60;1.30;;;5.70;98.20;;;;;;6122421;23;20421;-85
2023/12/27 01:36:24;;;;;;;1.63;1.30;;;5.70;98.20;;;;;;6108489;23;20451;-83
2023/12/27 01:38:52;;;;;;;1.70;1.40;;;5.70;98.20;;;;;;6123810;23;20489;-84
2023/12/27 01:41:18;;;;;;;1.60;1.30;;;5.70;98.20;;;;;;6107547;23;20460;-84
2023/12/27 01:43:45;;;;;;;1.67;1.40;;;5.70;98.20;;;;;;6122298;23;20422;-82
2023/12/27 01:46:13;;;;;;;1.67;1.30;;;5.70;98.20;;;;;;6109246;23;21014;-82
2023/12/27 01:48:41;;;;;;;1.63;1.30;;;5.70;98.20;;;;;;6123222;23;20450;-83
2023/12/27 01:51:08;;;;;;;1.67;1.30;;;5.70;98.20;;;;;;6108847;23;20442;-84
2023/12/27 01:53:35;;;;;;;1.63;1.30;;;5.70;98.20;;;;;;6122292;23;20869;-84
2023/12/27 01:56:04;;;;;;;1.70;1.33;;;5.70;98.20;;;;;;6108910;23;20768;-84
2023/12/27 01:58:31;;;;;;;1.60;1.30;;;5.60;98.20;;;;;;6122544;23;20417;-83
2023/12/27 02:00:59;;;;;;;1.60;1.30;;;5.60;98.20;;;;;;6108570;23;20442;-82
2023/12/27 02:03:25;;;;;;;1.70;1.40;;;5.60;98.20;;;;;;6130784;23;20520;-83
2023/12/27 02:05:53;;;;;;;1.60;1.30;;;5.50;98.20;;;;;;6110050;23;20422;-81
2023/12/27 02:08:20;;;;;;;1.60;1.30;;;5.50;98.20;;;;;;6123073;23;20512;-84
2023/12/27 02:10:48;;;;;;;1.70;1.30;;;5.50;98.20;;;;;;6117499;23;20449;-83
2023/12/27 02:13:16;;;;;;;1.70;1.50;;;5.50;98.20;;;;;;6135356;23;20489;-83
2023/12/27 02:15:43;;;;;;;1.67;1.40;;;5.50;98.20;;;;;;6141440;23;20432;-83
2023/12/27 02:18:11;;;;;;;1.70;1.37;;;5.50;98.20;;;;;;6116635;23;20751;-81
2023/12/27 02:20:39;;;;;;;1.70;1.40;;;5.40;98.20;;;;;;6122076;23;20530;-83
2023/12/27 02:23:11;;;;;;;1.67;1.30;;;5.40;98.20;;;;;;6100543;23;20453;-84
2023/12/27 02:25:41;;;;;;;1.70;1.30;;;5.40;98.20;;;;;;6120442;23;20413;-84
2023/12/27 02:28:07;;;;;;;1.67;1.40;;;5.40;98.20;;;;;;6107170;23;20973;-85
2023/12/27 02:30:36;;;;;;;1.67;1.33;;;5.40;98.20;;;;;;6121226;23;20453;-84
2023/12/27 02:33:03;;;;;;;1.70;1.40;;;5.40;98.20;;;;;;6106301;23;20449;-84
2023/12/27 02:35:30;;;;;;;1.63;1.30;;;5.40;98.20;;;;;;6121885;23;20622;-85
2023/12/27 02:37:57;;;;;;;1.70;1.40;;;5.40;98.20;;;;;;6107431;23;20452;-85
2023/12/27 02:40:23;;;;;;;1.63;1.30;;;5.40;98.20;;;;;;6122396;23;20811;-85
2023/12/27 02:42:52;;;;;;;1.60;1.30;;;5.30;98.20;;;;;;6105984;23;20450;-85
2023/12/27 02:45:18;;;;;;;2.07;1.87;;;5.30;98.20;;;;;;6122297;23;20911;-85
2023/12/27 02:47:45;;;;;;;1.70;1.40;;;5.30;98.20;;;;;;6106464;23;20450;-86
2023/12/27 02:50:12;;;;;;;1.60;1.30;;;5.30;98.20;;;;;;6122516;23;20516;-86
2023/12/27 02:52:39;;;;;;;1.60;1.30;;;5.40;98.20;;;;;;6106532;23;20457;-83
2023/12/27 02:55:06;;;;;;;1.70;1.30;;;5.40;98.20;;;;;;6133100;23;20833;-85
2023/12/27 02:57:34;;;;;;;1.70;1.40;;;5.40;98.20;;;;;;6107317;23;20451;-83
2023/12/27 03:00:03;;;;;;;1.60;1.30;;;5.30;98.20;;;;;;6122833;23;20441;-84
2023/12/27 03:02:30;;;;;;;1.70;1.40;;;5.30;98.20;;;;;;6109694;23;20479;-85
2023/12/27 03:04:56;;;;;;;1.67;1.40;;;5.30;98.20;;;;;;6133793;23;20449;-85
2023/12/27 03:07:23;;;;;;;1.60;1.30;;;5.30;98.20;;;;;;6110124;23;20445;-85
2023/12/27 03:09:50;;;;;;;1.63;1.40;;;5.30;98.20;;;;;;6132647;23;20424;-85
2023/12/27 03:12:17;;;;;;;1.60;1.30;;;5.40;98.20;;;;;;6107238;23;21051;-83
2023/12/27 03:14:43;;;;;;;1.60;1.30;;;5.40;98.20;;;;;;6122652;23;20418;-83
2023/12/27 03:17:11;;;;;;;1.67;1.40;;;5.40;98.20;;;;;;6108084;23;20493;-84
2023/12/27 03:19:38;;;;;;;1.70;1.30;;;5.40;98.20;;;;;;6132860;23;20430;-85
2023/12/27 03:22:05;;;;;;;1.60;1.30;;;5.40;98.20;;;;;;6107068;23;21005;-83
2023/12/27 03:24:32;;;;;;;1.67;1.30;;;5.40;98.20;;;;;;6122122;23;21025;-85
2023/12/27 03:26:59;;;;;;;1.67;1.40;;;5.40;98.20;;;;;;6108073;23;20469;-84
2023/12/27 03:29:26;;;;;;;1.60;1.30;;;5.40;98.20;;;;;;6132460;23;20426;-83
2023/12/27 03:31:52;;;;;;;1.63;1.30;;;5.40;98.20;;;;;;6105264;23;20453;-83
2023/12/27 03:34:21;;;;;;;1.70;1.30;;;5.40;98.20;;;;;;6121184;23;20428;-83
2023/12/27 03:36:47;;;;;;;1.60;1.30;;;5.40;98.20;;;;;;6107623;23;20825;-83
2023/12/27 03:39:14;;;;;;;1.60;1.30;;;5.40;98.20;;;;;;6122989;23;21049;-84
2023/12/27 03:41:41;;;;;;;1.60;1.30;;;5.40;98.20;;;;;;6107566;23;20460;-83
2023/12/27 03:44:08;;;;;;;1.60;1.30;;;5.40;98.20;;;;;;6121739;23;20432;-83
2023/12/27 03:46:34;;;;;;;1.70;1.50;;;5.40;98.20;;;;;;6104372;23;20449;-83
2023/12/27 03:49:01;;;;;;;1.60;1.30;;;5.50;98.20;;;;;;6122340;23;20845;-85
2023/12/27 03:51:29;;;;;;;1.60;1.40;;;5.50;98.20;;;;;;6105904;23;20464;-86
2023/12/27 03:53:56;;;;;;;1.70;1.33;;;5.50;98.20;;;;;;6121143;23;20418;-83
2023/12/27 03:56:23;;;;;;;1.60;1.30;;;5.50;98.20;;;;;;6106995;23;20457;-86
2023/12/27 03:58:50;;;;;;;1.60;1.33;;;5.50;98.20;;;;;;6130939;23;20512;-85
2023/12/27 04:01:20;;;;;;;1.60;1.30;;;5.50;98.20;;;;;;6107231;23;20890;-85
2023/12/27 04:03:47;;;;;;;1.63;1.20;;;5.60;98.20;;;;;;6130403;23;20912;-85
2023/12/27 04:06:18;;;;;;;1.63;1.30;;;5.60;98.20;;;;;;6106784;23;20584;-84
2023/12/27 04:08:46;;;;;;;1.67;1.30;;;5.60;98.20;;;;;;6121691;23;20445;-82
2023/12/27 04:11:13;;;;;;;1.70;1.40;;;5.60;98.20;;;;;;6106746;23;20524;-84
2023/12/27 04:13:40;;;;;;;1.63;1.33;;;5.60;98.20;;;;;;6119850;23;20568;-82
2023/12/27 04:16:07;;;;;;;1.60;1.27;;;5.70;98.20;;;;;;6108036;23;20531;-84
2023/12/27 04:18:34;;;;;;;1.67;1.30;;;5.70;98.20;;;;;;6120584;23;21099;-85
2023/12/27 04:21:01;;;;;;;1.70;1.40;;;5.70;98.20;;;;;;6106488;23;20445;-85
2023/12/27 04:23:28;;;;;;;1.77;1.57;;;5.80;98.20;;;;;;6119004;23;20449;-85
2023/12/27 04:25:56;;;;;;;1.60;1.30;;;5.80;98.20;;;;;;6105668;23;20951;-83
2023/12/27 04:28:22;;;;;;;1.63;1.30;;;5.80;98.20;;;;;;6130517;23;20449;-84
2023/12/27 04:30:49;;;;;;;1.60;1.30;;;5.80;98.20;;;;;;6110956;23;20442;-84
2023/12/27 04:33:16;;;;;;;1.63;1.30;;;5.80;98.20;;;;;;6122744;23;20489;-83
2023/12/27 04:35:44;;;;;;;1.60;1.30;;;5.90;98.20;;;;;;6122277;23;20445;-85
2023/12/27 04:38:13;;;;;;;1.60;1.30;;;5.90;98.20;;;;;;6106715;23;20450;-86
2023/12/27 04:40:44;;;;;;;1.67;1.30;;;5.90;98.20;;;;;;6120152;23;20445;-85
2023/12/27 04:43:13;;;;;;;1.60;1.27;;;5.90;98.20;;;;;;6105806;23;21024;-85
2023/12/27 04:45:39;;;;;;;1.70;1.40;;;6.00;98.20;;;;;;6120625;23;20496;-82
2023/12/27 04:48:07;;;;;;;1.70;1.30;;;6.00;98.20;;;;;;6106161;23;20452;-82
2023/12/27 04:50:34;;;;;;;1.70;1.33;;;6.00;98.20;;;;;;6122883;23;20437;-86
2023/12/27 04:53:01;;;;;;;1.67;1.30;;;6.00;98.20;;;;;;6108594;23;20533;-86
2023/12/27 04:55:28;;;;;;;1.70;1.30;;;6.10;98.20;;;;;;6123978;23;20810;-83
2023/12/27 04:57:55;;;;;;;1.63;1.30;;;6.10;98.20;;;;;;6108126;23;20881;-84
2023/12/27 05:00:27;;;;;;;1.67;1.30;;;6.10;98.20;;;;;;6132416;23;20455;-86
2023/12/27 05:02:54;;;;;;;2.20;2.00;;;6.20;98.20;;;;;;6107269;23;20450;-85
2023/12/27 05:05:21;;;;;;;1.63;1.30;;;6.20;98.20;;;;;;6124215;23;20421;-83
2023/12/27 05:07:48;;;;;;;1.67;1.30;;;6.20;98.20;;;;;;6110550;23;21000;-86
2023/12/27 05:10:15;;;;;;;1.60;1.30;;;6.20;98.20;;;;;;6122589;23;20498;-84
2023/12/27 05:12:42;;;;;;;1.60;1.30;;;6.30;98.20;;;;;;6105160;23;20529;-84
2023/12/27 05:15:12;;;;;;;1.70;1.40;;;6.30;98.20;;;;;;6123813;23;20417;-84
2023/12/27 05:17:40;;;;;;;1.80;1.70;;;6.30;98.20;;;;;;6107423;23;20446;-82
2023/12/27 05:20:08;;;;;;;2.90;2.70;;;6.40;98.20;;;;;;6123106;23;20452;-85
2023/12/27 05:22:39;;;;;;;1.60;1.30;;;6.40;98.20;;;;;;6107463;23;21003;-86
2023/12/27 05:25:06;;;;;;;1.63;1.30;;;6.40;98.20;;;;;;6124453;23;20410;-84
2023/12/27 05:27:35;;;;;;;1.60;1.30;;;6.40;98.20;;;;;;6109462;23;20453;-85
2023/12/27 05:30:03;;;;;;;1.60;1.30;;;6.40;98.20;;;;;;6134751;23;21048;-83
2023/12/27 05:32:30;;;;;;;1.60;1.20;;;6.40;98.20;;;;;;6109398;23;20537;-85
2023/12/27 05:34:59;;;;;;;1.70;1.30;;;6.40;98.20;;;;;;6134998;23;20491;-83
2023/12/27 05:37:25;;;;;;;1.60;1.30;;;6.40;98.20;;;;;;6108485;23;20843;-85
2023/12/27 05:39:52;;;;;;;1.60;1.30;;;6.40;98.20;;;;;;6123803;23;21037;-84
2023/12/27 05:42:19;;;;;;;1.70;1.30;;;6.40;98.20;;;;;;6111327;23;20450;-85
2023/12/27 05:44:46;;;;;;;1.63;1.33;;;6.40;98.20;;;;;;6122671;23;20481;-84
2023/12/27 05:47:13;;;;;;;1.60;1.30;;;6.50;98.20;;;;;;6108462;23;20467;-83
2023/12/27 05:49:39;;;;;;;1.60;1.30;;;6.50;98.20;;;;;;6123428;23;20553;-85
2023/12/27 05:52:08;;;;;;;1.60;1.30;;;6.50;98.20;;;;;;6108641;23;20449;-85
2023/12/27 05:54:35;;;;;;;1.60;1.30;;;6.50;98.20;;;;;;6124686;23;20421;-85
2023/12/27 05:57:02;;;;;;;1.70;1.40;;;6.60;98.20;;;;;;6108780;23;20505;-84
2023/12/27 05:59:29;;;;;;;1.70;1.40;;;6.60;98.20;;;;;;6122547;23;20456;-84
2023/12/27 06:01:55;;;;;;;1.60;1.30;;;6.60;98.20;;;;;;6109244;23;20999;-85
2023/12/27 06:04:23;;;;;;;1.60;1.30;;;6.60;98.20;;;;;;6123225;23;20461;-79
2023/12/27 06:06:49;;;;;;;1.63;1.20;;;6.60;98.20;;;;;;6111739;23;20453;-79
2023/12/27 06:09:18;;;;;;;1.63;1.30;;;6.60;98.20;;;;;;6126146;23;20446;-79
2023/12/27 06:11:45;;;;;;;1.60;1.30;;;6.60;98.20;;;;;;6112345;23;21073;-79
2023/12/27 06:14:12;;;;;;;1.60;1.30;;;6.70;98.20;;;;;;6128593;23;20449;-79
2023/12/27 06:16:39;;;;;;;1.67;1.30;;;6.70;98.20;;;;;;6111626;23;21033;-79
2023/12/27 06:19:06;;;;;;;1.60;1.30;;;6.70;98.20;;;;;;6127242;23;20501;-79
2023/12/27 06:21:33;;;;;;;1.67;1.30;;;6.70;98.20;;;;;;6114175;23;20456;-80
2023/12/27 06:24:00;;;;;;;1.60;1.30;;;6.80;98.20;;;;;;6130211;23;20456;-79
2023/12/27 06:26:28;;;;;;;2.83;2.63;;;6.80;98.20;;;;;;6113532;23;20446;-80
2023/12/27 06:28:54;;;;;;;2.03;1.83;;;6.80;98.20;;;;;;6129966;23;20992;-79
2023/12/27 06:31:21;;;;;;;1.60;1.30;;;6.80;98.20;;;;;;6114497;23;20506;-79
2023/12/27 06:33:48;;;;;;;1.60;1.30;;;6.80;98.20;;;;;;6128797;23;20438;-79
2023/12/27 06:36:15;;;;;;;1.60;1.30;;;6.80;98.20;;;;;;6112763;23;20445;-79
2023/12/27 06:38:45;;;;;;;1.70;1.30;;;6.80;98.20;;;;;;6126856;23;20534;-79
2023/12/27 06:41:12;;;;;;;1.60;1.20;;;6.80;98.20;;;;;;6115978;23;20894;-79
2023/12/27 06:43:41;;;;;;;1.60;1.20;;;6.80;98.20;;;;;;6128464;23;20489;-79
2023/12/27 06:46:08;;;;;;;1.60;1.30;;;6.90;98.20;;;;;;6115844;23;20860;-80
2023/12/27 06:48:35;;;;;;;1.93;1.70;;;6.90;98.20;;;;;;6131631;23;20473;-79
2023/12/27 06:51:05;;;;;;;1.70;1.30;;;6.90;98.20;;;;;;6115222;23;20421;-78
2023/12/27 06:53:32;;;;;;;1.60;1.20;;;6.90;98.20;;;;;;6131084;23;20483;-80
2023/12/27 06:56:00;;;;;;;1.63;1.27;;;6.90;98.20;;;;;;6116651;23;20429;-80
2023/12/27 06:58:27;;;;;;;1.63;1.30;;;7.00;98.20;;;;;;6131333;23;20418;-80
2023/12/27 07:00:55;;;;;;;1.93;1.70;;;7.00;98.20;;;;;;6112393;23;20490;-79
2023/12/27 07:03:22;;;;;;;1.60;1.20;;;7.00;98.20;;;;;;6129525;23;20477;-79
2023/12/27 07:05:49;;;;;;;1.70;1.30;;;7.00;98.20;;;;;;6115885;23;20460;-80
2023/12/27 07:08:16;;;;;;;1.60;1.30;;;7.00;98.20;;;;;;6129471;23;20449;-80
2023/12/27 07:10:43;;;;;;;1.67;1.30;;;7.10;98.20;;;;;;6129972;23;20635;-79
2023/12/27 07:13:10;;;;;;;1.60;1.20;;;7.10;98.20;;;;;;6113671;23;20513;-80
2023/12/27 07:15:37;;;;;;;1.63;1.30;;;7.10;98.20;;;;;;6126935;23;20442;-80
2023/12/27 07:18:06;;;;;;;1.60;1.20;;;7.10;98.20;;;;;;6112596;23;20528;-80
2023/12/27 07:20:33;;;;;;;1.60;1.20;;;7.20;98.20;;;;;;6125607;23;20891;-80
2023/12/27 07:23:00;;;;;;;1.60;1.20;;;7.20;98.20;;;;;;6109944;23;20457;-80
2023/12/27 07:25:27;;;;;;;1.70;1.30;;;7.30;98.20;;;;;;6132242;23;20726;-81
2023/12/27 07:27:54;;;;;;;1.63;1.20;;;7.30;98.20;;;;;;6117074;23;20473;-81
2023/12/27 07:30:20;;;;;;;1.60;1.30;;;7.30;98.20;;;;;;6130808;23;20565;-80
2023/12/27 07:32:47;;;;;;;1.60;1.20;;;7.30;98.20;;;;;;6110507;23;20450;-80
2023/12/27 07:35:15;;;;;;;1.60;1.30;;;7.40;98.20;;;;;;6125009;23;20469;-79
2023/12/27 07:37:42;;;;;;;1.70;1.43;;;7.40;98.20;;;;;;6110419;23;20464;-79
2023/12/27 07:40:10;;;;;;;1.60;1.20;;;7.40;98.20;;;;;;6124340;23;20759;-79
2023/12/27 07:42:37;;;;;;;1.63;1.20;;;7.40;98.20;;;;;;6106525;23;20450;-79
2023/12/27 07:45:06;;;;;;;1.63;1.20;;;7.50;98.20;;;;;;6125989;23;20442;-78
2023/12/27 07:47:33;;;;;;;1.60;1.20;;;7.50;98.20;;;;;;6111387;23;20467;-80
2023/12/27 07:50:00;;;;;;;1.60;1.23;;;7.60;98.20;;;;;;6124913;23;20453;-78
2023/12/27 07:52:28;;;;;;;1.70;1.40;;;7.60;98.20;;;;;;6109394;23;20863;-79
2023/12/27 07:54:56;;;;;;;1.60;1.20;;;7.60;98.20;;;;;;6126780;23;20441;-79
2023/12/27 07:57:23;;;;;;;1.60;1.20;;;7.70;98.20;;;;;;6110918;23;20967;-79
2023/12/27 07:59:55;;;;;;;1.60;1.20;;;7.70;98.20;;;;;;6124586;23;20494;-80
2023/12/27 08:02:22;;;;;;;1.60;1.20;;;7.70;98.20;;;;;;6111679;23;20457;-80
2023/12/27 08:04:48;;;;;;;1.60;1.23;;;7.80;98.20;;;;;;6124417;23;20919;-79
2023/12/27 08:07:16;;;;;;;1.60;1.27;;;7.80;98.20;;;;;;6110665;23;20834;-78
2023/12/27 08:09:44;;;;;;;1.60;1.20;;;7.90;98.20;;;;;;6127280;23;20495;-78
2023/12/27 08:12:11;;;;;;;1.60;1.20;;;7.90;98.20;;;;;;6114581;23;20455;-79
2023/12/27 08:14:37;;;;;;;1.63;1.30;;;7.90;98.20;;;;;;6126878;23;20470;-79
2023/12/27 08:17:04;;;;;;;1.60;1.20;;;8.00;98.20;;;;;;6113853;23;20509;-79
2023/12/27 08:19:31;;;;;;;1.60;1.23;;;8.00;98.20;;;;;;6131629;23;20421;-79
2023/12/27 08:21:58;;;;;;;1.60;1.17;;;8.10;98.20;;;;;;6115801;23;20525;-79
2023/12/27 08:24:25;;;;;;;1.60;1.20;;;8.10;98.20;;;;;;6126258;23;20651;-79
2023/12/27 08:26:53;;;;;;;1.70;1.30;;;8.10;98.20;;;;;;6112489;23;20449;-79
2023/12/27 08:29:20;;;;;;;1.60;1.20;;;8.20;98.20;;;;;;6124463;23;20548;-78
2023/12/27 08:31:47;;;;;;;1.60;1.20;;;8.20;98.20;;;;;;6108869;23;20460;-78
2023/12/27 08:34:14;;;;;;;1.60;1.20;;;8.20;98.20;;;;;;6121346;23;20860;-77
2023/12/27 08:36:45;;;;;;;1.60;1.20;;;8.20;98.20;;;;;;6107986;23;20450;-78
2023/12/27 08:39:11;;;;;;;1.60;1.20;;;8.20;98.20;;;;;;6123154;23;20431;-78
2023/12/27 08:41:38;;;;;;;1.63;1.13;;;8.30;98.20;;;;;;6107300;23;20476;-77
2023/12/27 08:44:07;;;;;;;1.60;1.20;;;8.30;98.20;;;;;;6123432;23;20446;-78
2023/12/27 08:46:34;;;;;;;1.60;1.20;;;8.30;98.20;;;;;;6107320;23;20530;-77
2023/12/27 08:49:01;;;;;;;1.60;1.20;;;8.30;98.20;;;;;;6120277;23;20533;-77
2023/12/27 08:51:29;;;;;;;1.60;1.30;;;8.40;98.20;;;;;;6113476;23;20493;-77
2023/12/27 08:53:56;;;;;;;1.60;1.20;;;8.40;98.20;;;;;;6122763;23;20442;-77
2023/12/27 08:56:23;;;;;;;1.60;1.20;;;8.40;98.20;;;;;;6107033;23;20697;-78
2023/12/27 08:58:50;;;;;;;1.73;1.50;;;8.40;98.20;;;;;;6121622;23;20454;-77
2023/12/27 09:01:18;;;;;;;1.60;1.20;;;8.50;98.20;;;;;;6108072;23;20642;-79
2023/12/27 09:03:45;;;;;;;1.60;1.30;;;8.50;98.20;;;;;;6122002;23;20424;-78
2023/12/27 09:06:12;;;;;;;1.97;1.50;;;8.60;98.20;;;;;;6108259;23;20450;-77
2023/12/27 09:08:40;;;;;;;1.60;1.10;;;8.60;98.20;;;;;;6121799;23;20422;-77
2023/12/27 09:11:07;;;;;;;1.63;1.20;;;8.70;98.20;;;;;;6117085;23;20431;-78
2023/12/27 09:13:33;;;;;;;1.60;1.10;;;8.70;98.20;;;;;;6121763;23;20421;-79
2023/12/27 09:16:03;;;;;;;1.70;1.30;;;8.80;98.20;;;;;;6114001;23;20514;-79
2023/12/27 09:18:31;;;;;;;1.70;1.30;;;8.80;98.20;;;;;;6127161;23;20429;-79
2023/12/27 09:20:58;;;;;;;1.70;1.30;;;8.80;98.20;;;;;;6112541;23;20422;-78
2023/12/27 09:23:25;;;;;;;1.60;1.10;;;8.90;98.20;;;;;;6127691;23;20489;-79
2023/12/27 09:25:51;;;;;;;1.67;1.30;;;8.90;98.20;;;;;;6112259;23;20445;-78
2023/12/27 09:28:19;;;;;;;1.63;1.20;;;8.90;98.20;;;;;;6124898;23;20512;-78
2023/12/27 09:30:46;;;;;;;1.60;1.20;;;9.00;98.20;;;;;;6121858;23;20450;-78
2023/12/27 09:33:13;;;;;;;1.60;1.10;;;9.00;98.20;;;;;;6084729;23;20525;-78
2023/12/27 09:35:41;;;;;;;1.60;1.10;;;9.10;98.20;;;;;;6134769;23;20971;-77
2023/12/27 09:38:11;;;;;;;1.70;1.30;;;9.10;98.20;;;;;;6110066;23;20472;-77
2023/12/27 09:40:37;;;;;;;1.70;1.40;;;9.10;98.20;;;;;;6123273;23;20586;-77
2023/12/27 09:43:05;;;;;;;1.60;1.10;;;9.10;98.20;;;;;;6106316;23;20540;-77
2023/12/27 09:45:36;;;;;;;1.60;1.20;;;9.20;98.20;;;;;;6120835;23;20440;-77
2023/12/27 09:48:03;;;;;;;1.60;1.13;;;9.20;98.20;;;;;;6106354;23;20449;-77
2023/12/27 09:50:30;;;;;;;1.60;1.20;;;9.20;98.20;;;;;;6121202;23;20445;-78
2023/12/27 09:52:59;;;;;;;1.60;1.20;;;9.20;98.20;;;;;;6106124;23;21000;-78
2023/12/27 09:55:26;;;;;;;1.63;1.20;;;9.30;98.20;;;;;;6122434;23;20484;-77
2023/12/27 09:57:53;;;;;;;1.60;1.10;;;9.30;98.20;;;;;;6106180;23;20500;-78
2023/12/27 10:00:23;;;;;;;1.63;1.17;;;9.30;98.20;;;;;;6123399;23;20761;-78
2023/12/27 10:02:54;;;;;;;1.60;1.20;;;9.30;98.20;;;;;;6105872;23;20484;-78
2023/12/27 10:05:23;;;;;;;1.60;1.20;;;9.30;98.20;;;;;;6131382;23;20449;-77
2023/12/27 10:07:51;;;;;;;1.60;1.30;;;9.40;98.20;;;;;;6104622;23;20454;-77
2023/12/27 10:10:22;;;;;;;1.60;1.10;;;9.40;98.20;;;;;;6121731;23;20445;-77
2023/12/27 10:12:50;;;;;;;1.80;1.60;;;9.40;98.20;;;;;;6104314;23;20664;-77
2023/12/27 10:15:17;;;;;;;1.63;1.20;;;9.40;98.20;;;;;;6131667;23;20442;-77
2023/12/27 10:17:44;;;;;;;1.60;1.20;;;9.40;98.20;;;;;;6104665;23;21022;-77
2023/12/27 10:20:30;;;;;;;1.60;1.20;;;9.40;98.20;;;;;;6130377;23;20830;-77
2023/12/27 10:22:57;;;;;;;1.67;1.20;;;9.50;98.20;;;;;;6104775;23;20702;-77
2023/12/27 10:25:26;;;;;;;1.60;1.20;;;9.50;98.20;;;;;;6129534;23;20442;-78
2023/12/27 10:27:52;;;;;;;1.70;1.30;;;9.60;98.20;;;;;;6105346;23;20457;-77
2023/12/27 10:30:19;;;;;;;1.70;1.20;;;9.60;98.20;;;;;;6120456;23;20471;-77
2023/12/27 10:32:57;;;;;;;1.60;1.20;;;9.60;98.20;;;;;;6105036;23;20514;-78
2023/12/27 10:35:24;;;;;;;1.60;1.10;;;9.60;98.20;;;;;;6122721;23;20441;-77
2023/12/27 10:37:59;;;;;;;1.60;1.20;;;9.70;98.20;;;;;;6105816;23;20453;-78
2023/12/27 10:40:30;;;;;;;1.63;1.20;;;9.70;98.20;;;;;;6122978;23;20401;-77
2023/12/27 10:42:57;;;;;;;1.70;1.23;;;9.70;98.20;;;;;;6106044;23;20449;-77
2023/12/27 10:45:24;;;;;;;1.60;1.10;;;9.70;98.20;;;;;;6121586;23;21126;-77
2023/12/27 10:47:57;;;;;;;2.73;1.77;;;9.80;98.20;;;;;;6106000;23;20488;-77
2023/12/27 10:50:28;;;;;;;1.70;1.10;;;9.80;98.20;;;;;;6120897;23;20438;-77
2023/12/27 10:53:02;;;;;;;1.60;1.10;;;9.90;98.20;;;;;;6104892;23;20455;-77
2023/12/27 10:55:32;;;;;;;1.60;1.10;;;9.90;98.20;;;;;;6130982;23;20433;-77
2023/12/27 10:58:01;;;;;;;1.60;1.13;;;9.90;98.20;;;;;;6105827;23;20537;-77
2023/12/27 11:00:29;;;;;;;1.63;1.20;;;9.90;98.20;;;;;;6121823;23;20421;-78
2023/12/27 11:02:58;;;;;;;1.60;1.20;;;10.00;98.20;;;;;;6105772;23;20489;-77
2023/12/27 11:05:27;;;;;;;1.60;1.10;;;10.00;98.20;;;;;;6131437;23;20445;-77
2023/12/27 11:07:55;;;;;;;1.60;1.10;;;10.00;98.20;;;;;;6105874;23;20449;-77
2023/12/27 11:10:24;;;;;;;1.60;1.10;;;10.00;98.20;;;;;;6121777;23;20450;-77
2023/12/27 11:12:59;;;;;;;1.70;1.40;;;10.00;98.20;;;;;;6104215;23;20455;-77
2023/12/27 11:15:28;;;;;;;1.63;1.20;;;10.10;98.20;;;;;;6120419;23;20766;-77
2023/12/27 11:17:57;;;;;;;1.60;1.10;;;10.10;98.20;;;;;;6105958;23;20461;-77
2023/12/27 11:20:26;;;;;;;1.60;1.10;;;10.10;98.20;;;;;;6121705;23;20413;-77
2023/12/27 11:22:53;;;;;;;1.60;1.10;;;10.10;98.20;;;;;;6104455;23;20454;-77
2023/12/27 11:25:19;;;;;;;1.67;1.13;;;10.10;98.20;;;;;;6121826;23;20525;-77
2023/12/27 11:27:47;;;;;;;1.60;1.20;;;10.20;98.20;;;;;;6104637;23;20456;-77
2023/12/27 11:30:16;;;;;;;1.60;1.00;;;10.20;98.20;;;;;;6120709;23;20454;-77
2023/12/27 11:32:42;;;;;;;1.60;1.10;;;10.20;98.20;;;;;;6103798;23;20454;-77
2023/12/27 11:35:11;;;;;;;1.60;1.20;;;10.20;98.20;;;;;;6120594;23;20537;-77
2023/12/27 11:37:41;;;;;;;1.63;1.20;;;10.30;98.20;;;;;;6104221;23;20461;-77
2023/12/27 11:40:11;;;;;;;1.60;1.10;;;10.30;98.20;;;;;;6119395;23;20875;-77
2023/12/27 11:42:40;;;;;;;1.60;1.10;;;10.30;98.20;;;;;;6103147;23;20463;-76
2023/12/27 11:45:07;;;;;;;1.60;1.10;;;10.30;98.20;;;;;;6119168;23;20958;-76
2023/12/27 11:47:39;;;;;;;1.80;1.50;;;10.40;98.20;;;;;;6103503;23;20449;-76
2023/12/27 11:50:22;;;;;;;1.80;1.50;;;10.30;98.20;;;;;;6128331;23;20450;-77
2023/12/27 11:52:51;;;;;;;1.63;1.10;;;10.40;98.20;;;;;;6102730;23;20582;-77
2023/12/27 11:55:20;;;;;;;1.60;1.00;;;10.40;98.20;;;;;;6121049;23;20440;-78
2023/12/27 12:00:56;;;;;;;1.60;1.10;;;10.40;98.20;;;;;;6116477;23;20479;-78
2023/12/27 12:03:37;;;;;;;1.60;1.10;;;10.50;98.20;;;;;;6122547;23;20481;-77
2023/12/27 12:06:18;;;;;;;1.60;1.20;;;10.50;98.20;;;;;;6109015;23;20394;-77
2023/12/27 12:08:50;;;;;;;1.60;1.17;;;10.50;98.20;;;;;;6121732;23;20437;-77
2023/12/27 12:11:17;;;;;;;1.60;1.10;;;10.50;98.20;;;;;;6106587;23;20456;-79
2023/12/27 12:13:46;;;;;;;1.60;1.20;;;10.50;98.20;;;;;;6119445;23;20493;-79
2023/12/27 12:16:15;;;;;;;1.60;1.10;;;10.50;98.20;;;;;;6105376;23;20449;-78
2023/12/27 12:18:43;;;;;;;1.60;1.00;;;10.50;98.20;;;;;;6119884;23;20448;-78
2023/12/27 12:21:10;;;;;;;1.67;1.10;;;10.50;98.20;;;;;;6105190;23;20450;-78
2023/12/27 12:23:37;;;;;;;1.60;1.00;;;10.60;98.20;;;;;;6117642;23;20462;-77
2023/12/27 12:26:04;;;;;;;1.60;1.13;;;10.60;98.20;;;;;;6106733;23;20835;-78
2023/12/27 12:28:31;;;;;;;1.63;1.10;;;10.60;98.20;;;;;;6120393;23;20418;-78
2023/12/27 12:30:59;;;;;;;1.60;1.20;;;10.60;98.20;;;;;;6105582;23;20485;-78
2023/12/27 12:33:26;;;;;;;1.60;1.10;;;10.70;98.20;;;;;;6119473;23;20922;-78
2023/12/27 12:35:56;;;;;;;1.60;1.10;;;10.70;98.20;;;;;;6104086;23;20677;-78
2023/12/27 12:38:23;;;;;;;1.60;1.00;;;10.70;98.20;;;;;;6119669;23;20426;-78
2023/12/27 12:40:51;;;;;;;1.60;1.10;;;10.80;98.20;;;;;;6121108;23;20418;-78
2023/12/27 12:43:18;;;;;;;1.63;1.20;;;10.80;98.20;;;;;;6104311;23;20533;-77
2023/12/27 12:45:46;;;;;;;1.60;1.10;;;10.80;98.20;;;;;;6120157;23;20441;-78
2023/12/27 12:48:14;;;;;;;1.60;1.00;;;10.90;98.20;;;;;;6080661;23;20762;-79
2023/12/27 12:50:44;;;;;;;1.60;1.10;;;10.90;98.20;;;;;;6119989;23;20458;-78
2023/12/27 12:53:16;;;;;;;1.60;1.10;;;10.90;98.20;;;;;;6100641;23;20529;-78
2023/12/27 12:55:44;;;;;;;1.60;1.00;;;11.00;98.20;;;;;;6126058;23;20763;-79
2023/12/27 12:58:11;;;;;;;1.60;1.10;;;11.00;98.20;;;;;;6102181;23;20810;-78
2023/12/27 13:00:38;;;;;;;1.60;1.10;;;11.10;98.20;;;;;;6117314;23;20449;-78